createdAt,value
2017-04-11T00:01:00.523Z,21.2
2017-04-11T00:02:08.602Z,21.1
2017-04-11T00:03:16.688Z,21.1
2017-04-11T00:04:24.777Z,21.1
2017-04-11T00:05:32.863Z,21.0
2017-04-11T00:06:40.952Z,21.1
2017-04-11T00:07:49.036Z,21.0
2017-04-11T00:08:57.119Z,21.0
2017-04-11T00:10:05.204Z,21.1
2017-04-11T00:11:13.286Z,21.0
2017-04-11T00:12:21.376Z,21.1
2017-04-11T00:13:29.460Z,21.1
2017-04-11T00:14:37.549Z,21.0
2017-04-11T00:15:45.633Z,21.0
2017-04-11T00:16:53.719Z,21.0
2017-04-11T00:18:01.803Z,21.0
2017-04-11T00:19:09.891Z,21.0
2017-04-11T00:20:17.980Z,21.0
2017-04-11T00:21:26.070Z,21.0
2017-04-11T00:22:34.150Z,21.0
2017-04-11T00:23:42.241Z,21.0
2017-04-11T00:24:50.336Z,21.1
2017-04-11T00:25:58.420Z,21.1
2017-04-11T00:27:06.506Z,21.1
2017-04-11T00:28:14.602Z,21.1
2017-04-11T00:29:22.686Z,21.0
2017-04-11T00:30:30.775Z,20.9
2017-04-11T00:31:38.862Z,20.9
2017-04-11T00:32:46.950Z,20.9
2017-04-11T00:33:55.032Z,21.0
2017-04-11T00:35:03.114Z,21.0
2017-04-11T00:36:11.201Z,21.0
2017-04-11T00:37:19.282Z,20.9
2017-04-11T00:38:27.371Z,20.9
2017-04-11T00:39:35.462Z,21.0
2017-04-11T00:40:43.549Z,20.9
2017-04-11T00:41:51.634Z,20.9
2017-04-11T00:42:59.717Z,20.9
2017-04-11T00:44:07.813Z,20.9
2017-04-11T00:45:15.898Z,20.9
2017-04-11T00:46:23.976Z,20.9
2017-04-11T00:47:32.066Z,20.9
2017-04-11T00:48:40.151Z,20.9
2017-04-11T00:49:48.235Z,20.9
2017-04-11T00:50:56.321Z,20.9
2017-04-11T00:52:04.410Z,20.8
2017-04-11T00:53:12.495Z,20.9
2017-04-11T00:54:20.582Z,20.9
2017-04-11T00:55:28.668Z,20.9
2017-04-11T00:56:36.755Z,20.8
2017-04-11T00:57:44.845Z,20.9
2017-04-11T00:58:52.927Z,20.9
2017-04-11T01:00:01.442Z,20.8
2017-04-11T01:01:09.102Z,20.8
2017-04-11T01:02:17.190Z,20.8
2017-04-11T01:03:25.278Z,20.9
2017-04-11T01:04:33.365Z,20.8
2017-04-11T01:05:41.451Z,20.8
2017-04-11T01:06:49.709Z,20.8
2017-04-11T01:07:57.801Z,20.8
2017-04-11T01:09:05.901Z,20.8
2017-04-11T01:10:13.978Z,20.8
2017-04-11T01:11:22.066Z,20.7
2017-04-11T01:12:30.150Z,20.8
2017-04-11T01:13:38.236Z,20.7
2017-04-11T01:14:46.326Z,20.7
2017-04-11T01:15:54.419Z,20.7
2017-04-11T01:17:02.505Z,20.6
2017-04-11T01:18:10.585Z,20.7
2017-04-11T01:19:18.685Z,20.7
2017-04-11T01:20:26.783Z,20.7
2017-04-11T01:21:34.874Z,20.7
2017-04-11T01:22:42.957Z,20.7
2017-04-11T01:23:51.038Z,20.6
2017-04-11T01:24:59.122Z,20.7
2017-04-11T01:26:07.211Z,20.7
2017-04-11T01:27:15.300Z,20.6
2017-04-11T01:28:23.385Z,20.7
2017-04-11T01:29:31.474Z,20.6
2017-04-11T01:30:39.567Z,20.6
2017-04-11T01:31:47.652Z,20.6
2017-04-11T01:32:55.738Z,20.6
2017-04-11T01:34:03.825Z,20.6
2017-04-11T01:35:11.918Z,20.6
2017-04-11T01:36:20.009Z,20.6
2017-04-11T01:37:28.094Z,20.6
2017-04-11T01:38:36.184Z,20.6
2017-04-11T01:39:44.276Z,20.5
2017-04-11T01:40:52.357Z,20.6
2017-04-11T01:42:00.439Z,20.5
2017-04-11T01:43:08.529Z,20.5
2017-04-11T01:44:16.613Z,20.6
2017-04-11T01:45:24.694Z,20.6
2017-04-11T01:46:32.786Z,20.5
2017-04-11T01:47:40.875Z,20.5
2017-04-11T01:48:48.956Z,20.5
2017-04-11T01:49:57.041Z,20.5
2017-04-11T01:51:05.132Z,20.5
2017-04-11T01:52:13.223Z,20.4
2017-04-11T01:53:21.306Z,20.4
2017-04-11T01:54:29.395Z,20.5
2017-04-11T01:55:37.576Z,20.4
2017-04-11T01:56:45.568Z,20.3
2017-04-11T01:57:53.652Z,20.4
2017-04-11T01:59:01.746Z,20.5
2017-04-11T02:00:09.832Z,20.5
2017-04-11T02:01:17.916Z,20.6
2017-04-11T02:02:26.002Z,20.4
2017-04-11T02:03:34.086Z,20.5
2017-04-11T02:04:42.173Z,20.4
2017-04-11T02:05:50.261Z,20.4
2017-04-11T02:06:58.354Z,20.5
2017-04-11T02:08:06.442Z,20.5
2017-04-11T02:09:14.526Z,20.5
2017-04-11T02:10:22.613Z,20.4
2017-04-11T02:11:30.711Z,20.4
2017-04-11T02:12:38.797Z,20.4
2017-04-11T02:13:46.881Z,20.3
2017-04-11T02:14:54.966Z,20.4
2017-04-11T02:16:03.054Z,20.3
2017-04-11T02:17:11.141Z,20.3
2017-04-11T02:18:19.232Z,20.4
2017-04-11T02:19:27.325Z,20.3
2017-04-11T02:20:35.401Z,20.4
2017-04-11T02:21:43.483Z,20.3
2017-04-11T02:22:51.568Z,20.3
2017-04-11T02:23:59.649Z,20.3
2017-04-11T02:25:07.738Z,20.3
2017-04-11T02:26:15.830Z,20.3
2017-04-11T02:27:23.914Z,20.3
2017-04-11T02:28:32.001Z,20.3
2017-04-11T02:29:40.087Z,20.3
2017-04-11T02:30:48.183Z,20.3
2017-04-11T02:31:56.263Z,20.3
2017-04-11T02:33:04.346Z,20.2
2017-04-11T02:34:12.433Z,20.3
2017-04-11T02:35:20.519Z,20.2
2017-04-11T02:36:28.602Z,20.3
2017-04-11T02:37:36.692Z,20.2
2017-04-11T02:38:44.776Z,20.2
2017-04-11T02:39:52.868Z,20.2
2017-04-11T02:41:00.950Z,20.2
2017-04-11T02:42:09.045Z,20.2
2017-04-11T02:43:17.131Z,20.2
2017-04-11T02:44:25.215Z,20.1
2017-04-11T02:45:33.305Z,20.2
2017-04-11T02:46:41.384Z,20.2
2017-04-11T02:47:49.468Z,20.2
2017-04-11T02:48:57.552Z,20.1
2017-04-11T02:50:05.649Z,20.2
2017-04-11T02:51:13.732Z,20.1
2017-04-11T02:52:21.815Z,20.2
2017-04-11T02:53:29.902Z,20.1
2017-04-11T02:54:37.989Z,20.1
2017-04-11T02:55:46.076Z,20.1
2017-04-11T02:56:54.156Z,20.1
2017-04-11T02:58:02.242Z,20.1
2017-04-11T02:59:10.332Z,20.1
2017-04-11T03:00:18.414Z,20.1
2017-04-11T03:01:26.503Z,20.1
2017-04-11T03:02:34.587Z,20.1
2017-04-11T03:03:42.672Z,20.1
2017-04-11T03:04:50.756Z,20.1
2017-04-11T03:05:58.846Z,20.0
2017-04-11T03:07:06.929Z,20.0
2017-04-11T03:08:15.013Z,20.1
2017-04-11T03:09:23.104Z,20.0
2017-04-11T03:10:31.191Z,20.0
2017-04-11T03:11:39.280Z,20.0
2017-04-11T03:12:47.368Z,20.0
2017-04-11T03:13:55.455Z,20.0
2017-04-11T03:15:03.536Z,20.0
2017-04-11T03:16:11.622Z,20.0
2017-04-11T03:17:19.710Z,20.0
2017-04-11T03:18:27.795Z,20.0
2017-04-11T03:19:35.882Z,20.0
2017-04-11T03:20:43.961Z,20.0
2017-04-11T03:21:52.052Z,20.0
2017-04-11T03:23:00.151Z,20.0
2017-04-11T03:24:08.226Z,20.0
2017-04-11T03:25:16.314Z,19.9
2017-04-11T03:26:24.400Z,20.0
2017-04-11T03:27:32.481Z,19.9
2017-04-11T03:28:40.575Z,20.0
2017-04-11T03:29:48.657Z,19.9
2017-04-11T03:30:56.745Z,20.0
2017-04-11T03:32:04.826Z,20.0
2017-04-11T03:33:12.920Z,19.9
2017-04-11T03:34:21.003Z,20.0
2017-04-11T03:35:29.092Z,20.0
2017-04-11T03:36:37.182Z,19.9
2017-04-11T03:37:45.271Z,19.9
2017-04-11T03:38:53.353Z,19.9
2017-04-11T03:40:01.443Z,19.8
2017-04-11T03:41:09.529Z,19.9
2017-04-11T03:42:17.618Z,19.9
2017-04-11T03:43:25.703Z,19.9
2017-04-11T03:44:33.794Z,19.8
2017-04-11T03:45:41.887Z,19.9
2017-04-11T03:46:49.970Z,19.8
2017-04-11T03:47:58.050Z,19.8
2017-04-11T03:49:06.146Z,19.8
2017-04-11T03:50:14.222Z,19.8
2017-04-11T03:51:22.303Z,19.8
2017-04-11T03:52:30.392Z,19.8
2017-04-11T03:53:38.477Z,19.7
2017-04-11T03:54:46.560Z,19.7
2017-04-11T03:55:54.644Z,19.8
2017-04-11T03:57:02.734Z,19.7
2017-04-11T03:58:10.815Z,19.8
2017-04-11T03:59:18.899Z,19.7
2017-04-11T04:00:26.985Z,19.8
2017-04-11T04:01:35.073Z,19.8
2017-04-11T04:02:43.160Z,19.7
2017-04-11T04:03:51.255Z,19.8
2017-04-11T04:04:59.339Z,19.7
2017-04-11T04:06:07.428Z,19.7
2017-04-11T04:07:15.511Z,19.7
2017-04-11T04:08:23.596Z,19.7
2017-04-11T04:09:31.679Z,19.7
2017-04-11T04:10:39.755Z,19.7
2017-04-11T04:11:47.849Z,19.7
2017-04-11T04:12:55.936Z,19.7
2017-04-11T04:14:04.017Z,19.7
2017-04-11T04:15:12.101Z,19.7
2017-04-11T04:16:20.195Z,19.7
2017-04-11T04:17:28.285Z,19.6
2017-04-11T04:18:36.367Z,19.7
2017-04-11T04:19:44.454Z,19.6
2017-04-11T04:20:52.542Z,19.7
2017-04-11T04:22:00.631Z,19.6
2017-04-11T04:23:08.711Z,19.6
2017-04-11T04:24:16.806Z,19.6
2017-04-11T04:25:24.884Z,19.8
2017-04-11T04:26:32.968Z,19.6
2017-04-11T04:27:41.059Z,19.7
2017-04-11T04:28:49.145Z,19.7
2017-04-11T04:29:57.231Z,19.7
2017-04-11T04:31:05.314Z,19.7
2017-04-11T04:32:13.403Z,19.7
2017-04-11T04:33:21.498Z,19.7
2017-04-11T04:34:29.580Z,19.6
2017-04-11T04:35:37.666Z,19.6
2017-04-11T04:36:45.751Z,19.6
2017-04-11T04:37:53.831Z,19.6
2017-04-11T04:39:01.918Z,19.6
2017-04-11T04:40:10.011Z,19.6
2017-04-11T04:41:18.169Z,19.6
2017-04-11T04:42:26.186Z,19.6
2017-04-11T04:43:34.275Z,19.6
2017-04-11T04:44:42.360Z,19.7
2017-04-11T04:45:50.448Z,19.5
2017-04-11T04:46:58.534Z,19.6
2017-04-11T04:48:06.625Z,19.6
2017-04-11T04:49:14.702Z,19.5
2017-04-11T04:50:22.788Z,19.5
2017-04-11T04:51:30.894Z,19.6
2017-04-11T04:52:38.965Z,19.5
2017-04-11T04:53:47.055Z,19.5
2017-04-11T04:54:55.139Z,19.5
2017-04-11T04:56:03.242Z,19.6
2017-04-11T04:57:11.326Z,19.6
2017-04-11T04:58:19.421Z,19.6
2017-04-11T04:59:27.508Z,19.5
2017-04-11T05:00:35.592Z,19.5
2017-04-11T05:01:43.671Z,19.5
2017-04-11T05:02:51.760Z,19.6
2017-04-11T05:03:59.844Z,19.6
2017-04-11T05:05:07.934Z,19.6
2017-04-11T05:06:16.017Z,19.6
2017-04-11T05:07:24.102Z,19.5
2017-04-11T05:08:32.191Z,19.5
2017-04-11T05:09:40.276Z,19.6
2017-04-11T05:10:48.355Z,19.6
2017-04-11T05:11:56.448Z,19.5
2017-04-11T05:13:04.525Z,19.6
2017-04-11T05:14:12.608Z,19.6
2017-04-11T05:15:20.713Z,19.4
2017-04-11T05:16:28.794Z,19.5
2017-04-11T05:17:36.879Z,19.5
2017-04-11T05:18:44.967Z,19.6
2017-04-11T05:19:53.060Z,19.4
2017-04-11T05:21:01.153Z,19.5
2017-04-11T05:22:09.231Z,19.5
2017-04-11T05:23:17.323Z,19.5
2017-04-11T05:24:25.404Z,19.5
2017-04-11T05:25:33.487Z,19.5
2017-04-11T05:26:41.570Z,19.4
2017-04-11T05:27:49.664Z,19.5
2017-04-11T05:28:57.758Z,19.4
2017-04-11T05:30:05.830Z,19.4
2017-04-11T05:31:13.919Z,19.4
2017-04-11T05:32:22.008Z,19.5
2017-04-11T05:33:30.093Z,19.4
2017-04-11T05:34:38.176Z,19.4
2017-04-11T05:35:46.258Z,19.4
2017-04-11T05:36:54.340Z,19.5
2017-04-11T05:38:02.422Z,19.4
2017-04-11T05:39:10.513Z,19.4
2017-04-11T05:40:18.604Z,19.5
2017-04-11T05:41:26.933Z,19.4
2017-04-11T05:42:34.776Z,19.4
2017-04-11T05:43:43.432Z,19.4
2017-04-11T05:44:50.959Z,19.4
2017-04-11T05:45:59.695Z,19.4
2017-04-11T05:47:07.564Z,19.4
2017-04-11T05:48:15.364Z,19.4
2017-04-11T05:49:23.299Z,19.4
2017-04-11T05:50:31.388Z,19.4
2017-04-11T05:51:39.473Z,19.4
2017-04-11T05:52:47.557Z,19.4
2017-04-11T05:53:55.639Z,19.4
2017-04-11T05:55:03.729Z,19.4
2017-04-11T05:56:11.847Z,19.3
2017-04-11T05:57:19.910Z,19.4
2017-04-11T05:58:28.026Z,19.4
2017-04-11T05:59:36.079Z,19.4
2017-04-11T06:00:44.157Z,19.3
2017-04-11T06:01:52.241Z,19.4
2017-04-11T06:03:00.328Z,19.3
2017-04-11T06:04:08.704Z,19.2
2017-04-11T06:05:16.502Z,19.3
2017-04-11T06:06:24.591Z,19.3
2017-04-11T06:07:32.677Z,19.3
2017-04-11T06:08:40.762Z,19.2
2017-04-11T06:09:48.841Z,19.4
2017-04-11T06:10:57.044Z,19.2
2017-04-11T06:12:05.017Z,19.3
2017-04-11T06:13:13.102Z,19.3
2017-04-11T06:14:21.203Z,19.3
2017-04-11T06:15:29.286Z,19.3
2017-04-11T06:16:37.359Z,19.3
2017-04-11T06:17:45.441Z,19.3
2017-04-11T06:18:53.529Z,19.3
2017-04-11T06:20:01.612Z,19.3
2017-04-11T06:21:09.696Z,19.3
2017-04-11T06:22:17.781Z,19.3
2017-04-11T06:23:25.870Z,19.2
2017-04-11T06:24:33.954Z,19.3
2017-04-11T06:25:42.040Z,19.3
2017-04-11T06:26:50.126Z,19.3
2017-04-11T06:27:58.223Z,19.3
2017-04-11T06:29:06.302Z,19.3
2017-04-11T06:30:14.384Z,19.3
2017-04-11T06:31:22.473Z,19.3
2017-04-11T06:32:30.556Z,19.2
2017-04-11T06:33:38.645Z,19.3
2017-04-11T06:34:46.735Z,19.3
2017-04-11T06:35:54.999Z,19.3
2017-04-11T06:37:02.899Z,19.3
2017-04-11T06:38:11.022Z,19.2
2017-04-11T06:39:19.075Z,19.2
2017-04-11T06:40:27.155Z,19.3
2017-04-11T06:41:35.240Z,19.3
2017-04-11T06:42:43.329Z,19.3
2017-04-11T06:43:51.413Z,19.3
2017-04-11T06:44:59.495Z,19.3
2017-04-11T06:46:07.581Z,19.3
2017-04-11T06:47:15.668Z,19.2
2017-04-11T06:48:23.748Z,19.2
2017-04-11T06:49:31.834Z,19.3
2017-04-11T06:50:39.929Z,19.3
2017-04-11T06:51:48.007Z,19.2
2017-04-11T06:52:56.091Z,19.3
2017-04-11T06:54:04.181Z,19.3
2017-04-11T06:55:12.264Z,19.2
2017-04-11T06:56:20.349Z,19.2
2017-04-11T06:57:28.431Z,19.3
2017-04-11T06:58:36.651Z,19.2
2017-04-11T06:59:44.593Z,19.2
2017-04-11T07:00:52.678Z,19.3
2017-04-11T07:02:00.767Z,19.3
2017-04-11T07:03:08.853Z,19.3
2017-04-11T07:04:16.939Z,19.3
2017-04-11T07:05:25.022Z,19.3
2017-04-11T07:06:33.171Z,19.3
2017-04-11T07:07:41.452Z,19.2
2017-04-11T07:08:49.618Z,19.3
2017-04-11T07:09:57.803Z,19.3
2017-04-11T07:11:05.616Z,19.3
2017-04-11T07:12:13.651Z,19.3
2017-04-11T07:13:22.316Z,19.2
2017-04-11T07:14:30.359Z,19.3
2017-04-11T07:15:38.175Z,19.3
2017-04-11T07:16:46.136Z,19.2
2017-04-11T07:17:54.404Z,19.2
2017-04-11T07:19:02.043Z,19.2
2017-04-11T07:20:10.533Z,19.2
2017-04-11T07:21:18.948Z,19.3
2017-04-11T07:22:26.295Z,19.3
2017-04-11T07:23:34.470Z,19.2
2017-04-11T07:24:42.846Z,19.3
2017-04-11T07:25:50.565Z,19.2
2017-04-11T07:26:58.644Z,19.3
2017-04-11T07:28:07.215Z,19.2
2017-04-11T07:29:14.956Z,19.2
2017-04-11T07:30:23.170Z,19.2
2017-04-11T07:31:30.985Z,19.3
2017-04-11T07:32:39.171Z,19.3
2017-04-11T07:33:47.606Z,19.2
2017-04-11T07:34:55.866Z,19.3
2017-04-11T07:36:03.953Z,19.3
2017-04-11T07:37:11.458Z,19.2
2017-04-11T07:38:19.648Z,19.3
2017-04-11T07:39:27.576Z,19.3
2017-04-11T07:40:35.662Z,19.3
2017-04-11T07:41:43.749Z,19.3
2017-04-11T07:42:51.832Z,19.2
2017-04-11T07:43:59.966Z,19.2
2017-04-11T07:45:08.002Z,19.4
2017-04-11T07:46:16.092Z,19.3
2017-04-11T07:47:24.345Z,19.3
2017-04-11T07:48:32.689Z,19.3
2017-04-11T07:49:40.516Z,19.2
2017-04-11T07:50:48.978Z,19.3
2017-04-11T07:51:58.005Z,19.3
2017-04-11T07:53:04.974Z,19.2
2017-04-11T07:54:13.366Z,19.3
2017-04-11T07:55:21.426Z,19.3
2017-04-11T07:56:28.862Z,19.3
2017-04-11T07:57:37.405Z,19.3
2017-04-11T07:58:45.364Z,19.3
2017-04-11T07:59:53.282Z,19.3
2017-04-11T08:01:01.646Z,19.3
2017-04-11T08:02:09.664Z,19.2
2017-04-11T08:03:17.569Z,19.3
2017-04-11T08:04:25.464Z,19.3
2017-04-11T08:05:33.661Z,19.3
2017-04-11T08:06:41.693Z,19.2
2017-04-11T08:07:49.858Z,19.3
2017-04-11T08:08:58.315Z,19.2
2017-04-11T08:10:06.557Z,19.3
2017-04-11T08:11:14.068Z,19.3
2017-04-11T08:12:22.228Z,19.3
2017-04-11T08:13:30.229Z,19.3
2017-04-11T08:14:38.365Z,19.2
2017-04-11T08:15:46.556Z,19.2
2017-04-11T08:16:54.748Z,19.3
2017-04-11T08:18:02.948Z,19.2
2017-04-11T08:19:11.004Z,19.3
2017-04-11T08:20:18.847Z,19.2
2017-04-11T08:21:26.814Z,19.3
2017-04-11T08:22:35.015Z,19.2
2017-04-11T08:23:43.163Z,19.4
2017-04-11T08:24:52.048Z,19.3
2017-04-11T08:25:59.624Z,19.3
2017-04-11T08:27:07.252Z,19.3
2017-04-11T08:28:15.708Z,19.3
2017-04-11T08:29:23.583Z,19.4
2017-04-11T08:30:31.510Z,19.4
2017-04-11T08:31:39.857Z,19.3
2017-04-11T08:32:47.573Z,19.4
2017-04-11T08:33:55.672Z,19.4
2017-04-11T08:35:03.835Z,19.4
2017-04-11T08:36:11.848Z,19.4
2017-04-11T08:37:19.937Z,19.4
2017-04-11T08:38:28.021Z,19.4
2017-04-11T08:39:36.103Z,19.4
2017-04-11T08:40:44.191Z,19.5
2017-04-11T08:41:52.276Z,19.4
2017-04-11T08:43:00.357Z,19.4
2017-04-11T08:44:08.448Z,19.4
2017-04-11T08:45:16.532Z,19.4
2017-04-11T08:46:24.618Z,19.5
2017-04-11T08:47:32.703Z,19.4
2017-04-11T08:48:40.792Z,19.5
2017-04-11T08:49:48.880Z,19.5
2017-04-11T08:50:56.967Z,19.4
2017-04-11T08:52:05.061Z,19.5
2017-04-11T08:53:13.144Z,19.5
2017-04-11T08:54:21.232Z,19.5
2017-04-11T08:55:29.310Z,19.4
2017-04-11T08:56:37.465Z,19.4
2017-04-11T08:57:45.497Z,19.4
2017-04-11T08:58:53.585Z,19.5
2017-04-11T09:00:01.668Z,19.5
2017-04-11T09:01:09.750Z,19.4
2017-04-11T09:02:17.837Z,19.5
2017-04-11T09:03:25.922Z,19.4
2017-04-11T09:04:34.013Z,19.5
2017-04-11T09:05:42.103Z,19.5
2017-04-11T09:06:50.257Z,19.5
2017-04-11T09:07:58.276Z,19.4
2017-04-11T09:09:06.362Z,19.4
2017-04-11T09:10:14.443Z,19.4
2017-04-11T09:11:22.533Z,19.4
2017-04-11T09:12:30.619Z,19.5
2017-04-11T09:13:38.700Z,19.4
2017-04-11T09:14:46.785Z,19.5
2017-04-11T09:15:54.881Z,19.4
2017-04-11T09:17:02.979Z,19.5
2017-04-11T09:18:11.051Z,19.5
2017-04-11T09:19:19.141Z,19.6
2017-04-11T09:20:27.230Z,19.5
2017-04-11T09:21:35.312Z,19.5
2017-04-11T09:22:43.394Z,19.5
2017-04-11T09:23:51.483Z,19.5
2017-04-11T09:24:59.568Z,19.6
2017-04-11T09:26:07.649Z,19.5
2017-04-11T09:27:15.737Z,19.5
2017-04-11T09:28:23.820Z,19.6
2017-04-11T09:29:31.907Z,19.5
2017-04-11T09:30:40.007Z,19.6
2017-04-11T09:31:48.075Z,19.6
2017-04-11T09:32:56.159Z,19.6
2017-04-11T09:34:04.246Z,19.6
2017-04-11T09:35:12.337Z,19.6
2017-04-11T09:36:20.426Z,19.6
2017-04-11T09:37:28.508Z,19.6
2017-04-11T09:38:36.593Z,19.6
2017-04-11T09:39:44.683Z,19.6
2017-04-11T09:40:52.765Z,19.6
2017-04-11T09:42:00.850Z,19.6
2017-04-11T09:43:08.938Z,19.6
2017-04-11T09:44:17.033Z,19.6
2017-04-11T09:45:25.117Z,19.6
2017-04-11T09:46:33.191Z,19.6
2017-04-11T09:47:41.280Z,19.7
2017-04-11T09:48:49.362Z,19.6
2017-04-11T09:49:57.448Z,19.6
2017-04-11T09:51:05.537Z,19.7
2017-04-11T09:52:13.628Z,19.6
2017-04-11T09:53:21.712Z,19.6
2017-04-11T09:54:29.801Z,19.6
2017-04-11T09:55:37.884Z,19.6
2017-04-11T09:56:45.970Z,19.6
2017-04-11T09:57:54.053Z,19.7
2017-04-11T09:59:02.141Z,19.6
2017-04-11T10:00:10.231Z,19.7
2017-04-11T10:01:18.370Z,19.7
2017-04-11T10:02:26.406Z,19.7
2017-04-11T10:03:34.520Z,19.7
2017-04-11T10:04:42.577Z,19.7
2017-04-11T10:05:50.657Z,19.7
2017-04-11T10:06:58.749Z,19.6
2017-04-11T10:08:06.838Z,19.6
2017-04-11T10:09:14.928Z,19.6
2017-04-11T10:10:23.011Z,19.7
2017-04-11T10:11:31.095Z,19.7
2017-04-11T10:12:39.180Z,19.7
2017-04-11T10:13:47.266Z,19.7
2017-04-11T10:14:55.353Z,19.7
2017-04-11T10:16:03.439Z,19.7
2017-04-11T10:17:11.526Z,19.7
2017-04-11T10:18:19.615Z,19.7
2017-04-11T10:19:27.698Z,19.7
2017-04-11T10:20:35.789Z,19.7
2017-04-11T10:21:43.876Z,19.7
2017-04-11T10:22:51.960Z,19.8
2017-04-11T10:24:00.046Z,19.7
2017-04-11T10:25:08.126Z,19.7
2017-04-11T10:26:16.213Z,19.8
2017-04-11T10:27:24.304Z,19.8
2017-04-11T10:28:32.396Z,19.7
2017-04-11T10:29:40.473Z,19.7
2017-04-11T10:30:48.568Z,19.7
2017-04-11T10:31:56.657Z,19.8
2017-04-11T10:33:04.744Z,19.8
2017-04-11T10:34:12.828Z,19.8
2017-04-11T10:35:20.921Z,19.8
2017-04-11T10:36:29.004Z,19.8
2017-04-11T10:37:37.090Z,19.8
2017-04-11T10:38:45.180Z,19.7
2017-04-11T10:39:53.264Z,19.8
2017-04-11T10:41:01.342Z,19.8
2017-04-11T10:42:09.432Z,19.7
2017-04-11T10:43:17.515Z,19.7
2017-04-11T10:44:25.633Z,19.7
2017-04-11T10:45:33.685Z,19.8
2017-04-11T10:46:42.243Z,19.8
2017-04-11T10:47:49.861Z,19.7
2017-04-11T10:48:57.942Z,19.7
2017-04-11T10:50:06.117Z,19.8
2017-04-11T10:51:14.119Z,19.8
2017-04-11T10:52:22.197Z,19.7
2017-04-11T10:53:30.291Z,19.7
2017-04-11T10:54:38.495Z,19.7
2017-04-11T10:55:46.459Z,19.8
2017-04-11T10:56:54.541Z,19.8
2017-04-11T10:58:02.635Z,19.8
2017-04-11T10:59:10.722Z,19.7
2017-04-11T11:00:18.802Z,19.7
2017-04-11T11:01:26.892Z,19.8
2017-04-11T11:02:34.975Z,19.8
2017-04-11T11:03:43.105Z,19.9
2017-04-11T11:04:51.152Z,19.9
2017-04-11T11:05:59.242Z,19.8
2017-04-11T11:07:07.334Z,19.9
2017-04-11T11:08:15.414Z,19.9
2017-04-11T11:09:23.924Z,19.9
2017-04-11T11:10:31.586Z,19.9
2017-04-11T11:11:39.676Z,19.9
2017-04-11T11:12:47.770Z,19.9
2017-04-11T11:13:55.858Z,19.9
2017-04-11T11:15:03.944Z,19.9
2017-04-11T11:16:12.026Z,19.9
2017-04-11T11:17:20.112Z,19.9
2017-04-11T11:18:28.204Z,19.9
2017-04-11T11:19:36.292Z,19.9
2017-04-11T11:20:44.451Z,19.9
2017-04-11T11:21:52.460Z,19.9
2017-04-11T11:23:00.550Z,20.0
2017-04-11T11:24:08.630Z,19.9
2017-04-11T11:25:16.720Z,19.9
2017-04-11T11:26:24.803Z,20.0
2017-04-11T11:27:32.885Z,19.9
2017-04-11T11:28:40.975Z,20.0
2017-04-11T11:29:49.063Z,19.9
2017-04-11T11:30:57.150Z,20.0
2017-04-11T11:32:05.348Z,19.9
2017-04-11T11:33:13.320Z,19.9
2017-04-11T11:34:21.413Z,19.9
2017-04-11T11:35:29.495Z,19.9
2017-04-11T11:36:37.584Z,19.9
2017-04-11T11:37:45.673Z,19.9
2017-04-11T11:38:53.760Z,19.9
2017-04-11T11:40:01.845Z,19.9
2017-04-11T11:41:09.930Z,19.9
2017-04-11T11:42:18.021Z,19.9
2017-04-11T11:43:26.108Z,19.9
2017-04-11T11:44:34.190Z,19.9
2017-04-11T11:45:42.285Z,19.9
2017-04-11T11:46:50.386Z,19.9
2017-04-11T11:47:58.462Z,20.0
2017-04-11T11:49:06.552Z,19.9
2017-04-11T11:50:14.643Z,19.9
2017-04-11T11:51:22.722Z,19.9
2017-04-11T11:52:30.807Z,19.9
2017-04-11T11:53:38.896Z,20.0
2017-04-11T11:54:46.985Z,19.9
2017-04-11T11:55:55.065Z,19.9
2017-04-11T11:57:03.153Z,19.9
2017-04-11T11:58:11.237Z,19.9
2017-04-11T11:59:19.317Z,19.9
2017-04-11T12:00:27.405Z,19.9
2017-04-11T12:01:35.491Z,19.9
2017-04-11T12:02:43.580Z,19.9
2017-04-11T12:03:51.664Z,19.9
2017-04-11T12:04:59.755Z,19.9
2017-04-11T12:06:07.842Z,19.9
2017-04-11T12:07:15.931Z,20.0
2017-04-11T12:08:24.013Z,19.9
2017-04-11T12:09:32.104Z,19.9
2017-04-11T12:10:40.195Z,19.9
2017-04-11T12:11:48.277Z,19.9
2017-04-11T12:12:56.366Z,20.0
2017-04-11T12:14:04.457Z,19.9
2017-04-11T12:15:12.548Z,20.0
2017-04-11T12:16:20.637Z,20.0
2017-04-11T12:17:28.720Z,20.0
2017-04-11T12:18:36.813Z,20.0
2017-04-11T12:19:44.901Z,20.0
2017-04-11T12:20:52.990Z,20.0
2017-04-11T12:22:01.073Z,20.0
2017-04-11T12:23:09.158Z,19.9
2017-04-11T12:24:17.255Z,19.9
2017-04-11T12:25:25.335Z,20.0
2017-04-11T12:26:33.418Z,20.0
2017-04-11T12:27:41.507Z,20.0
2017-04-11T12:28:49.597Z,20.0
2017-04-11T12:29:57.692Z,20.0
2017-04-11T12:31:05.783Z,20.0
2017-04-11T12:32:13.870Z,20.0
2017-04-11T12:33:21.955Z,20.1
2017-04-11T12:34:30.042Z,20.0
2017-04-11T12:35:38.124Z,20.0
2017-04-11T12:36:46.212Z,20.0
2017-04-11T12:37:54.298Z,20.0
2017-04-11T12:39:02.387Z,20.0
2017-04-11T12:40:10.484Z,20.0
2017-04-11T12:41:18.568Z,20.1
2017-04-11T12:42:26.653Z,20.0
2017-04-11T12:43:34.736Z,20.0
2017-04-11T12:44:42.838Z,20.0
2017-04-11T12:45:51.023Z,20.1
2017-04-11T12:46:59.014Z,20.0
2017-04-11T12:48:07.108Z,20.1
2017-04-11T12:49:15.190Z,20.0
2017-04-11T12:50:23.271Z,20.1
2017-04-11T12:51:31.354Z,20.1
2017-04-11T12:52:39.451Z,20.1
2017-04-11T12:53:47.535Z,20.1
2017-04-11T12:54:55.641Z,20.1
2017-04-11T12:56:03.716Z,20.1
2017-04-11T12:57:11.797Z,20.1
2017-04-11T12:58:19.887Z,20.1
2017-04-11T12:59:27.969Z,20.1
2017-04-11T13:00:36.055Z,20.1
2017-04-11T13:01:44.141Z,20.0
2017-04-11T13:02:52.226Z,20.1
2017-04-11T13:04:00.318Z,20.1
2017-04-11T13:05:08.403Z,20.1
2017-04-11T13:06:16.487Z,20.1
2017-04-11T13:07:24.574Z,20.1
2017-04-11T13:08:32.663Z,20.1
2017-04-11T13:09:40.746Z,20.1
2017-04-11T13:10:48.830Z,20.1
2017-04-11T13:11:56.925Z,20.0
2017-04-11T13:13:05.008Z,20.1
2017-04-11T13:14:13.089Z,20.1
2017-04-11T13:15:21.178Z,20.1
2017-04-11T13:16:29.266Z,20.1
2017-04-11T13:17:37.351Z,20.1
2017-04-11T13:18:45.431Z,20.1
2017-04-11T13:19:53.534Z,20.1
2017-04-11T13:21:01.621Z,20.1
2017-04-11T13:22:09.703Z,20.2
2017-04-11T13:23:17.792Z,20.2
2017-04-11T13:24:25.876Z,20.2
2017-04-11T13:25:33.959Z,20.1
2017-04-11T13:26:42.042Z,20.1
2017-04-11T13:27:50.142Z,20.2
2017-04-11T13:28:58.228Z,20.2
2017-04-11T13:30:06.323Z,20.3
2017-04-11T13:31:14.406Z,20.2
2017-04-11T13:32:22.491Z,20.2
2017-04-11T13:33:30.575Z,20.2
2017-04-11T13:34:38.657Z,20.1
2017-04-11T13:35:46.744Z,20.2
2017-04-11T13:36:54.829Z,20.2
2017-04-11T13:38:02.915Z,20.2
2017-04-11T13:39:11.010Z,20.2
2017-04-11T13:40:19.100Z,20.1
2017-04-11T13:41:27.188Z,20.2
2017-04-11T13:42:35.276Z,20.2
2017-04-11T13:43:43.365Z,20.2
2017-04-11T13:44:51.450Z,20.3
2017-04-11T13:45:59.534Z,20.2
2017-04-11T13:47:07.622Z,20.2
2017-04-11T13:48:15.713Z,20.2
2017-04-11T13:49:23.794Z,20.3
2017-04-11T13:50:31.880Z,20.1
2017-04-11T13:51:39.978Z,20.1
2017-04-11T13:52:48.064Z,20.2
2017-04-11T13:53:56.143Z,20.2
2017-04-11T13:55:04.243Z,20.2
2017-04-11T13:56:12.333Z,20.2
2017-04-11T13:57:20.415Z,20.2
2017-04-11T13:58:28.497Z,20.1
2017-04-11T13:59:36.586Z,20.1
2017-04-11T14:00:44.671Z,20.1
2017-04-11T14:01:52.754Z,20.1
2017-04-11T14:03:00.846Z,20.2
2017-04-11T14:04:08.932Z,20.3
2017-04-11T14:05:17.015Z,20.2
2017-04-11T14:06:25.149Z,20.2
2017-04-11T14:07:33.193Z,20.2
2017-04-11T14:08:41.271Z,20.2
2017-04-11T14:09:49.351Z,20.1
2017-04-11T14:10:57.440Z,20.1
2017-04-11T14:12:05.525Z,20.2
2017-04-11T14:13:13.614Z,20.2
2017-04-11T14:14:21.703Z,20.1
2017-04-11T14:15:29.791Z,20.2
2017-04-11T14:16:37.874Z,20.1
2017-04-11T14:17:45.958Z,20.1
2017-04-11T14:18:54.048Z,20.2
2017-04-11T14:20:02.129Z,20.2
2017-04-11T14:21:10.215Z,20.1
2017-04-11T14:22:18.300Z,20.2
2017-04-11T14:23:26.405Z,20.1
2017-04-11T14:24:34.467Z,20.1
2017-04-11T14:25:42.553Z,20.2
2017-04-11T14:26:50.646Z,20.1
2017-04-11T14:27:58.727Z,20.2
2017-04-11T14:29:06.809Z,20.2
2017-04-11T14:30:14.897Z,20.2
2017-04-11T14:31:22.989Z,20.2
2017-04-11T14:32:31.079Z,20.1
2017-04-11T14:33:39.161Z,20.2
2017-04-11T14:34:47.256Z,20.1
2017-04-11T14:35:55.345Z,20.1
2017-04-11T14:37:03.428Z,20.1
2017-04-11T14:38:11.526Z,20.1
2017-04-11T14:39:19.609Z,20.1
2017-04-11T14:40:27.698Z,20.2
2017-04-11T14:41:35.779Z,20.2
2017-04-11T14:42:43.894Z,20.2
2017-04-11T14:43:51.954Z,20.2
2017-04-11T14:45:00.039Z,20.2
2017-04-11T14:46:08.124Z,20.2
2017-04-11T14:47:16.211Z,20.2
2017-04-11T14:48:24.497Z,20.2
2017-04-11T14:49:32.380Z,20.1
2017-04-11T14:50:40.470Z,20.2
2017-04-11T14:51:48.556Z,20.2
2017-04-11T14:52:56.637Z,20.2
2017-04-11T14:54:04.786Z,20.2
2017-04-11T14:55:12.810Z,20.2
2017-04-11T14:56:20.901Z,20.1
2017-04-11T14:57:29.120Z,20.2
2017-04-11T14:58:37.064Z,20.2
2017-04-11T14:59:45.152Z,20.1
2017-04-11T15:00:53.241Z,20.2
2017-04-11T15:02:01.325Z,20.3
2017-04-11T15:03:09.412Z,20.2
2017-04-11T15:04:17.497Z,20.2
2017-04-11T15:05:25.589Z,20.2
2017-04-11T15:06:33.673Z,20.2